Terminal Aerodrome Forecast
Issued by NWS

Current Version | Previous Version | Text Only | Print | Product List | Glossary On
Versions: 1 2 3 4 5 6 7 8 9 10 11 12 13 14 15 16 17 18 19 20 21 22 23 24 25 26 27 28 29 30 31 32 33 34 35 36 37 38 39
000
FTUS41 KBTV 220538 AAA
TAFPBG
TAF AMD
KPBG 220538Z 2206/2306 35013KT 6SM -DZ BR OVC009
      TEMPO 2206/2210 3SM -RA BR OVC004
     FM221000 35012KT 1SM -DZ BR OVC004
     FM221400 36014G18KT 2SM -RA BR OVC007
     FM221800 01015G22KT 5SM -RA BR OVC008=

USA.gov is the U.S. government's official web portal to all federal, state and local government web resources and services.